sensor_id;sensor_type;location;lat;lon;timestamp;pressure;altitude;pressure_sealevel;temperature;humidity
17505;BME280;8870;50.950;11.762;2022-12-29T00:03:15;97562.03;;;7.73;100.00
17505;BME280;8870;50.950;11.762;2022-12-29T00:08:34;97553.63;;;7.76;100.00
17505;BME280;8870;50.950;11.762;2022-12-29T00:14:08;97550.13;;;7.76;100.00
17505;BME280;8870;50.950;11.762;2022-12-29T00:19:39;97546.44;;;7.85;100.00
17505;BME280;8870;50.950;11.762;2022-12-29T00:25:22;97539.75;;;7.89;100.00
17505;BME280;8870;50.950;11.762;2022-12-29T00:30:58;97536.06;;;7.90;100.00
17505;BME280;8870;50.950;11.762;2022-12-29T00:36:44;97524.50;;;7.90;100.00
17505;BME280;8870;50.950;11.762;2022-12-29T00:42:03;97540.75;;;7.88;100.00
17505;BME280;8870;50.950;11.762;2022-12-29T00:47:59;97542.09;;;7.92;100.00
17505;BME280;8870;50.950;11.762;2022-12-29T00:53:18;97536.75;;;7.92;100.00
17505;BME280;8870;50.950;11.762;2022-12-29T00:58:48;97528.34;;;7.95;100.00
17505;BME280;8870;50.950;11.762;2022-12-29T01:04:10;97513.13;;;7.96;100.00
17505;BME280;8870;50.950;11.762;2022-12-29T01:09:41;97512.59;;;8.00;100.00
17505;BME280;8870;50.950;11.762;2022-12-29T01:15:13;97510.09;;;7.99;100.00
17505;BME280;8870;50.950;11.762;2022-12-29T01:20:48;97523.66;;;7.97;100.00
17505;BME280;8870;50.950;11.762;2022-12-29T01:26:10;97498.34;;;7.92;100.00
17505;BME280;8870;50.950;11.762;2022-12-29T01:31:41;97509.06;;;7.92;100.00
17505;BME280;8870;50.950;11.762;2022-12-29T01:37:02;97512.63;;;7.92;100.00
17505;BME280;8870;50.950;11.762;2022-12-29T01:42:34;97516.13;;;7.93;100.00
17505;BME280;8870;50.950;11.762;2022-12-29T01:47:54;97523.97;;;7.94;100.00
17505;BME280;8870;50.950;11.762;2022-12-29T01:53:31;97533.38;;;7.98;100.00
17505;BME280;8870;50.950;11.762;2022-12-29T01:59:01;97517.97;;;8.00;100.00
17505;BME280;8870;50.950;11.762;2022-12-29T02:04:38;97522.00;;;8.05;100.00
17505;BME280;8870;50.950;11.762;2022-12-29T02:10:05;97530.38;;;8.10;100.00
17505;BME280;8870;50.950;11.762;2022-12-29T02:15:31;97520.16;;;8.22;100.00
17505;BME280;8870;50.950;11.762;2022-12-29T02:21:37;97533.56;;;8.22;100.00
17505;BME280;8870;50.950;11.762;2022-12-29T02:33:09;97496.81;;;8.30;100.00
17505;BME280;8870;50.950;11.762;2022-12-29T02:38:54;97508.56;;;8.38;100.00
17505;BME280;8870;50.950;11.762;2022-12-29T02:44:20;97509.53;;;8.45;100.00
17505;BME280;8870;50.950;11.762;2022-12-29T02:50:03;97492.63;;;8.53;100.00
17505;BME280;8870;50.950;11.762;2022-12-29T02:55:26;97486.75;;;8.57;100.00
17505;BME280;8870;50.950;11.762;2022-12-29T03:01:10;97473.66;;;8.54;100.00
17505;BME280;8870;50.950;11.762;2022-12-29T03:06:44;97489.41;;;8.57;100.00
17505;BME280;8870;50.950;11.762;2022-12-29T03:12:26;97462.41;;;8.59;100.00
17505;BME280;8870;50.950;11.762;2022-12-29T03:18:05;97476.66;;;8.59;100.00
17505;BME280;8870;50.950;11.762;2022-12-29T03:23:41;97476.66;;;8.59;100.00
17505;BME280;8870;50.950;11.762;2022-12-29T03:29:02;97483.56;;;8.54;100.00
17505;BME280;8870;50.950;11.762;2022-12-29T03:34:37;97471.16;;;8.53;100.00
17505;BME280;8870;50.950;11.762;2022-12-29T03:40:12;97467.78;;;8.51;100.00
17505;BME280;8870;50.950;11.762;2022-12-29T03:45:31;97460.94;;;8.48;100.00
17505;BME280;8870;50.950;11.762;2022-12-29T03:51:02;97462.75;;;8.47;100.00
17505;BME280;8870;50.950;11.762;2022-12-29T03:56:22;97468.28;;;8.46;100.00
17505;BME280;8870;50.950;11.762;2022-12-29T04:01:57;97461.91;;;8.47;100.00
17505;BME280;8870;50.950;11.762;2022-12-29T04:07:18;97457.91;;;8.51;100.00
17505;BME280;8870;50.950;11.762;2022-12-29T04:12:51;97440.13;;;8.50;100.00
17505;BME280;8870;50.950;11.762;2022-12-29T04:18:10;97456.38;;;8.57;100.00
17505;BME280;8870;50.950;11.762;2022-12-29T04:23:41;97441.28;;;8.56;100.00
17505;BME280;8870;50.950;11.762;2022-12-29T04:29:01;97445.81;;;8.47;100.00
17505;BME280;8870;50.950;11.762;2022-12-29T04:34:56;97456.91;;;8.52;100.00
17505;BME280;8870;50.950;11.762;2022-12-29T04:40:29;97467.47;;;8.54;100.00
17505;BME280;8870;50.950;11.762;2022-12-29T04:45:49;97494.81;;;8.49;100.00
17505;BME280;8870;50.950;11.762;2022-12-29T04:51:41;97467.97;;;8.49;100.00
17505;BME280;8870;50.950;11.762;2022-12-29T04:56:59;97471.31;;;8.43;100.00
17505;BME280;8870;50.950;11.762;2022-12-29T05:02:37;97459.59;;;8.36;100.00
17505;BME280;8870;50.950;11.762;2022-12-29T05:07:56;97454.88;;;8.29;100.00
17505;BME280;8870;50.950;11.762;2022-12-29T05:13:27;97438.28;;;8.26;100.00
17505;BME280;8870;50.950;11.762;2022-12-29T05:18:48;97452.56;;;8.26;100.00
17505;BME280;8870;50.950;11.762;2022-12-29T05:24:20;97450.03;;;8.33;100.00
17505;BME280;8870;50.950;11.762;2022-12-29T05:29:38;97411.75;;;8.39;100.00
17505;BME280;8870;50.950;11.762;2022-12-29T05:35:12;97433.72;;;8.43;100.00
17505;BME280;8870;50.950;11.762;2022-12-29T05:40:31;97430.41;;;8.49;100.00
17505;BME280;8870;50.950;11.762;2022-12-29T05:46:29;97449.16;;;8.57;100.00
17505;BME280;8870;50.950;11.762;2022-12-29T05:51:57;97425.84;;;8.58;100.00
17505;BME280;8870;50.950;11.762;2022-12-29T05:57:30;97427.47;;;8.67;100.00
17505;BME280;8870;50.950;11.762;2022-12-29T06:02:50;97435.16;;;8.70;100.00
17505;BME280;8870;50.950;11.762;2022-12-29T06:08:23;97434.00;;;8.73;100.00
17505;BME280;8870;50.950;11.762;2022-12-29T06:13:45;97426.63;;;8.75;100.00
17505;BME280;8870;50.950;11.762;2022-12-29T06:19:16;97435.97;;;8.79;100.00
17505;BME280;8870;50.950;11.762;2022-12-29T06:24:36;97435.47;;;8.84;100.00
17505;BME280;8870;50.950;11.762;2022-12-29T06:30:09;97423.34;;;8.88;100.00
17505;BME280;8870;50.950;11.762;2022-12-29T06:35:34;97394.16;;;8.85;100.00
17505;BME280;8870;50.950;11.762;2022-12-29T06:41:10;97399.41;;;8.78;100.00
17505;BME280;8870;50.950;11.762;2022-12-29T06:46:42;97412.03;;;8.69;100.00
17505;BME280;8870;50.950;11.762;2022-12-29T06:52:14;97416.56;;;8.69;100.00
17505;BME280;8870;50.950;11.762;2022-12-29T06:57:34;97419.78;;;8.64;100.00
17505;BME280;8870;50.950;11.762;2022-12-29T07:03:06;97413.06;;;8.68;100.00
17505;BME280;8870;50.950;11.762;2022-12-29T07:08:24;97409.22;;;8.94;100.00
17505;BME280;8870;50.950;11.762;2022-12-29T07:13:58;97396.44;;;9.04;100.00
17505;BME280;8870;50.950;11.762;2022-12-29T07:19:17;97404.63;;;9.11;100.00
17505;BME280;8870;50.950;11.762;2022-12-29T07:24:49;97396.97;;;9.23;100.00
17505;BME280;8870;50.950;11.762;2022-12-29T07:30:11;97382.34;;;9.25;100.00
17505;BME280;8870;50.950;11.762;2022-12-29T07:35:43;97391.00;;;9.36;100.00
17505;BME280;8870;50.950;11.762;2022-12-29T07:41:14;97380.00;;;9.46;100.00
17505;BME280;8870;50.950;11.762;2022-12-29T07:46:36;97373.94;;;9.52;100.00
17505;BME280;8870;50.950;11.762;2022-12-29T07:52:12;97377.34;;;9.61;100.00
17505;BME280;8870;50.950;11.762;2022-12-29T07:57:30;97370.41;;;9.66;100.00
17505;BME280;8870;50.950;11.762;2022-12-29T08:03:03;97378.34;;;9.83;100.00
17505;BME280;8870;50.950;11.762;2022-12-29T08:08:22;97395.97;;;9.85;100.00
17505;BME280;8870;50.950;11.762;2022-12-29T08:13:53;97409.06;;;9.89;100.00
17505;BME280;8870;50.950;11.762;2022-12-29T08:19:14;97419.75;;;9.97;100.00
17505;BME280;8870;50.950;11.762;2022-12-29T08:24:45;97422.31;;;10.13;100.00
17505;BME280;8870;50.950;11.762;2022-12-29T08:30:04;97414.88;;;10.15;100.00
17505;BME280;8870;50.950;11.762;2022-12-29T08:35:38;97417.28;;;10.10;100.00
17505;BME280;8870;50.950;11.762;2022-12-29T08:40:57;97420.44;;;10.14;100.00
17505;BME280;8870;50.950;11.762;2022-12-29T08:46:29;97419.97;;;10.10;100.00
17505;BME280;8870;50.950;11.762;2022-12-29T08:51:49;97402.59;;;10.13;100.00
17505;BME280;8870;50.950;11.762;2022-12-29T08:57:21;97415.91;;;10.14;100.00
17505;BME280;8870;50.950;11.762;2022-12-29T09:02:47;97409.41;;;10.24;100.00
17505;BME280;8870;50.950;11.762;2022-12-29T09:08:22;97423.16;;;10.29;100.00
17505;BME280;8870;50.950;11.762;2022-12-29T09:13:40;97411.97;;;10.40;100.00
17505;BME280;8870;50.950;11.762;2022-12-29T09:19:13;97412.59;;;10.42;100.00
17505;BME280;8870;50.950;11.762;2022-12-29T09:24:33;97422.44;;;10.50;100.00
17505;BME280;8870;50.950;11.762;2022-12-29T09:30:07;97438.44;;;10.52;100.00
17505;BME280;8870;50.950;11.762;2022-12-29T09:35:34;97442.16;;;10.51;100.00
17505;BME280;8870;50.950;11.762;2022-12-29T09:41:13;97444.75;;;10.44;100.00
17505;BME280;8870;50.950;11.762;2022-12-29T09:46:35;97448.63;;;10.41;100.00
17505;BME280;8870;50.950;11.762;2022-12-29T09:52:13;97431.16;;;10.37;100.00
17505;BME280;8870;50.950;11.762;2022-12-29T09:57:39;97423.06;;;10.37;100.00
17505;BME280;8870;50.950;11.762;2022-12-29T10:03:14;97426.97;;;10.35;100.00
17505;BME280;8870;50.950;11.762;2022-12-29T10:08:37;97431.50;;;10.34;100.00
17505;BME280;8870;50.950;11.762;2022-12-29T10:14:22;97419.06;;;10.33;100.00
17505;BME280;8870;50.950;11.762;2022-12-29T10:20:02;97421.59;;;10.35;100.00
17505;BME280;8870;50.950;11.762;2022-12-29T10:25:39;97422.41;;;10.35;100.00
17505;BME280;8870;50.950;11.762;2022-12-29T10:31:03;97433.00;;;10.37;100.00
17505;BME280;8870;50.950;11.762;2022-12-29T10:36:39;97435.00;;;10.43;100.00
17505;BME280;8870;50.950;11.762;2022-12-29T10:42:25;97418.53;;;10.53;100.00
17505;BME280;8870;50.950;11.762;2022-12-29T10:47:53;97429.69;;;10.64;100.00
17505;BME280;8870;50.950;11.762;2022-12-29T10:53:33;97421.13;;;10.76;100.00
17505;BME280;8870;50.950;11.762;2022-12-29T10:58:55;97418.06;;;10.79;100.00
17505;BME280;8870;50.950;11.762;2022-12-29T11:04:46;97412.50;;;10.81;100.00
17505;BME280;8870;50.950;11.762;2022-12-29T11:10:21;97407.75;;;10.83;100.00
17505;BME280;8870;50.950;11.762;2022-12-29T11:16:01;97413.41;;;10.88;100.00
17505;BME280;8870;50.950;11.762;2022-12-29T11:21:30;97404.50;;;10.87;100.00
17505;BME280;8870;50.950;11.762;2022-12-29T11:27:14;97410.09;;;10.86;100.00
17505;BME280;8870;50.950;11.762;2022-12-29T11:32:32;97395.75;;;10.85;100.00
17505;BME280;8870;50.950;11.762;2022-12-29T11:38:05;97395.31;;;10.82;100.00
17505;BME280;8870;50.950;11.762;2022-12-29T11:43:32;97400.31;;;10.85;100.00
17505;BME280;8870;50.950;11.762;2022-12-29T11:49:05;97409.44;;;10.84;100.00
17505;BME280;8870;50.950;11.762;2022-12-29T11:54:29;97418.34;;;10.84;100.00
17505;BME280;8870;50.950;11.762;2022-12-29T12:00:06;97409.59;;;10.82;100.00
17505;BME280;8870;50.950;11.762;2022-12-29T12:05:37;97425.97;;;10.81;100.00
17505;BME280;8870;50.950;11.762;2022-12-29T12:11:19;97408.25;;;10.71;100.00
17505;BME280;8870;50.950;11.762;2022-12-29T12:16:41;97402.84;;;10.71;100.00
17505;BME280;8870;50.950;11.762;2022-12-29T12:22:19;97424.03;;;10.74;100.00
17505;BME280;8870;50.950;11.762;2022-12-29T12:27:48;97406.84;;;10.75;100.00
17505;BME280;8870;50.950;11.762;2022-12-29T12:33:29;97396.44;;;10.72;100.00
17505;BME280;8870;50.950;11.762;2022-12-29T12:38:54;97393.09;;;10.70;100.00
17505;BME280;8870;50.950;11.762;2022-12-29T12:44:36;97412.72;;;10.64;100.00
17505;BME280;8870;50.950;11.762;2022-12-29T12:50:15;97423.94;;;10.38;100.00
17505;BME280;8870;50.950;11.762;2022-12-29T12:56:16;97418.75;;;10.13;100.00
17505;BME280;8870;50.950;11.762;2022-12-29T13:01:52;97440.63;;;9.95;100.00
17505;BME280;8870;50.950;11.762;2022-12-29T13:07:32;97449.66;;;9.79;100.00
17505;BME280;8870;50.950;11.762;2022-12-29T13:13:05;97455.66;;;9.66;100.00
17505;BME280;8870;50.950;11.762;2022-12-29T13:18:50;97449.63;;;9.64;100.00
17505;BME280;8870;50.950;11.762;2022-12-29T13:24:15;97451.22;;;9.50;100.00
17505;BME280;8870;50.950;11.762;2022-12-29T13:29:56;97457.09;;;9.53;100.00
17505;BME280;8870;50.950;11.762;2022-12-29T13:35:37;97458.81;;;9.46;100.00
17505;BME280;8870;50.950;11.762;2022-12-29T13:41:20;97450.38;;;9.49;100.00
17505;BME280;8870;50.950;11.762;2022-12-29T13:46:44;97446.56;;;9.67;100.00
17505;BME280;8870;50.950;11.762;2022-12-29T13:52:26;97465.25;;;9.83;100.00
17505;BME280;8870;50.950;11.762;2022-12-29T13:57:49;97471.06;;;9.72;100.00
17505;BME280;8870;50.950;11.762;2022-12-29T14:03:45;97471.25;;;9.70;100.00
17505;BME280;8870;50.950;11.762;2022-12-29T14:09:30;97463.19;;;9.70;100.00
17505;BME280;8870;50.950;11.762;2022-12-29T14:15:13;97477.75;;;9.76;100.00
17505;BME280;8870;50.950;11.762;2022-12-29T14:20:33;97467.47;;;9.80;100.00
17505;BME280;8870;50.950;11.762;2022-12-29T14:26:17;97459.59;;;9.78;100.00
17505;BME280;8870;50.950;11.762;2022-12-29T14:31:36;97467.94;;;9.83;100.00
17505;BME280;8870;50.950;11.762;2022-12-29T14:37:23;97475.91;;;9.77;100.00
17505;BME280;8870;50.950;11.762;2022-12-29T14:42:57;97496.28;;;9.71;100.00
17505;BME280;8870;50.950;11.762;2022-12-29T14:48:31;97513.81;;;9.67;100.00
17505;BME280;8870;50.950;11.762;2022-12-29T14:54:40;97512.59;;;9.46;100.00
17505;BME280;8870;50.950;11.762;2022-12-29T15:00:21;97530.13;;;9.34;100.00
17505;BME280;8870;50.950;11.762;2022-12-29T15:05:43;97536.53;;;9.24;100.00
17505;BME280;8870;50.950;11.762;2022-12-29T15:11:24;97526.53;;;9.10;100.00
17505;BME280;8870;50.950;11.762;2022-12-29T15:16:52;97537.47;;;9.00;100.00
17505;BME280;8870;50.950;11.762;2022-12-29T15:22:23;97553.78;;;8.90;100.00
17505;BME280;8870;50.950;11.762;2022-12-29T15:27:43;97572.63;;;8.74;100.00
17505;BME280;8870;50.950;11.762;2022-12-29T15:33:23;97578.69;;;8.59;100.00
17505;BME280;8870;50.950;11.762;2022-12-29T15:38:42;97582.88;;;8.45;100.00
17505;BME280;8870;50.950;11.762;2022-12-29T15:44:18;97600.13;;;8.35;100.00
17505;BME280;8870;50.950;11.762;2022-12-29T15:49:41;97594.94;;;8.25;100.00
17505;BME280;8870;50.950;11.762;2022-12-29T15:55:20;97596.09;;;8.14;100.00
17505;BME280;8870;50.950;11.762;2022-12-29T16:00:39;97600.78;;;8.04;100.00
17505;BME280;8870;50.950;11.762;2022-12-29T16:06:28;97600.44;;;7.90;100.00
17505;BME280;8870;50.950;11.762;2022-12-29T16:11:47;97610.13;;;7.83;100.00
17505;BME280;8870;50.950;11.762;2022-12-29T16:17:23;97627.88;;;7.76;100.00
17505;BME280;8870;50.950;11.762;2022-12-29T16:22:47;97614.09;;;7.62;100.00
17505;BME280;8870;50.950;11.762;2022-12-29T16:28:21;97621.94;;;7.55;100.00
17505;BME280;8870;50.950;11.762;2022-12-29T16:33:46;97618.03;;;7.42;100.00
17505;BME280;8870;50.950;11.762;2022-12-29T16:39:25;97619.84;;;7.33;100.00
17505;BME280;8870;50.950;11.762;2022-12-29T16:44:45;97623.69;;;7.30;100.00
17505;BME280;8870;50.950;11.762;2022-12-29T16:50:21;97617.28;;;7.23;100.00
17505;BME280;8870;50.950;11.762;2022-12-29T16:55:46;97609.56;;;7.20;100.00
17505;BME280;8870;50.950;11.762;2022-12-29T17:01:10;97596.50;;;7.17;100.00
17505;BME280;8870;50.950;11.762;2022-12-29T17:06:36;97608.00;;;7.09;100.00
17505;BME280;8870;50.950;11.762;2022-12-29T17:11:58;97605.44;;;6.99;100.00
17505;BME280;8870;50.950;11.762;2022-12-29T17:17:33;97608.41;;;6.88;100.00
17505;BME280;8870;50.950;11.762;2022-12-29T17:22:52;97620.19;;;6.77;100.00
17505;BME280;8870;50.950;11.762;2022-12-29T17:28:28;97620.28;;;6.67;100.00
17505;BME280;8870;50.950;11.762;2022-12-29T17:33:49;97628.25;;;6.59;100.00
17505;BME280;8870;50.950;11.762;2022-12-29T17:39:21;97622.16;;;6.48;100.00
17505;BME280;8870;50.950;11.762;2022-12-29T17:44:42;97611.75;;;6.45;100.00
17505;BME280;8870;50.950;11.762;2022-12-29T17:50:16;97611.16;;;6.52;100.00
17505;BME280;8870;50.950;11.762;2022-12-29T17:55:34;97622.44;;;6.63;100.00
17505;BME280;8870;50.950;11.762;2022-12-29T18:01:09;97630.75;;;6.78;100.00
17505;BME280;8870;50.950;11.762;2022-12-29T18:06:28;97634.50;;;6.86;100.00
17505;BME280;8870;50.950;11.762;2022-12-29T18:11:59;97609.47;;;7.03;100.00
17505;BME280;8870;50.950;11.762;2022-12-29T18:17:20;97615.94;;;7.19;100.00
17505;BME280;8870;50.950;11.762;2022-12-29T18:22:51;97624.56;;;7.39;100.00
17505;BME280;8870;50.950;11.762;2022-12-29T18:28:09;97638.09;;;7.37;100.00
17505;BME280;8870;50.950;11.762;2022-12-29T18:33:44;97645.53;;;7.44;100.00
17505;BME280;8870;50.950;11.762;2022-12-29T18:39:02;97645.53;;;7.52;100.00
17505;BME280;8870;50.950;11.762;2022-12-29T18:44:42;97653.75;;;7.50;100.00
17505;BME280;8870;50.950;11.762;2022-12-29T18:50:03;97647.84;;;7.47;100.00
17505;BME280;8870;50.950;11.762;2022-12-29T18:55:35;97650.19;;;7.42;100.00
17505;BME280;8870;50.950;11.762;2022-12-29T19:00:53;97655.19;;;7.36;100.00
17505;BME280;8870;50.950;11.762;2022-12-29T19:06:27;97645.34;;;7.45;100.00
17505;BME280;8870;50.950;11.762;2022-12-29T19:11:56;97653.50;;;7.35;100.00
17505;BME280;8870;50.950;11.762;2022-12-29T19:17:29;97652.84;;;7.33;100.00
17505;BME280;8870;50.950;11.762;2022-12-29T19:22:50;97655.88;;;7.38;100.00
17505;BME280;8870;50.950;11.762;2022-12-29T19:28:24;97648.09;;;7.27;100.00
17505;BME280;8870;50.950;11.762;2022-12-29T19:33:42;97649.28;;;7.24;100.00
17505;BME280;8870;50.950;11.762;2022-12-29T19:39:17;97643.88;;;7.16;100.00
17505;BME280;8870;50.950;11.762;2022-12-29T19:44:35;97650.38;;;7.14;100.00
17505;BME280;8870;50.950;11.762;2022-12-29T19:50:10;97655.72;;;7.14;100.00
17505;BME280;8870;50.950;11.762;2022-12-29T19:55:32;97656.72;;;7.13;100.00
17505;BME280;8870;50.950;11.762;2022-12-29T20:01:05;97667.03;;;7.25;100.00
17505;BME280;8870;50.950;11.762;2022-12-29T20:06:23;97675.56;;;7.21;100.00
17505;BME280;8870;50.950;11.762;2022-12-29T20:11:57;97678.16;;;7.13;100.00
17505;BME280;8870;50.950;11.762;2022-12-29T20:17:15;97680.94;;;7.29;100.00
17505;BME280;8870;50.950;11.762;2022-12-29T20:23:07;97685.41;;;7.20;100.00
17505;BME280;8870;50.950;11.762;2022-12-29T20:28:28;97704.53;;;7.25;100.00
17505;BME280;8870;50.950;11.762;2022-12-29T20:33:59;97699.69;;;7.29;100.00
17505;BME280;8870;50.950;11.762;2022-12-29T20:39:19;97726.81;;;7.26;100.00
17505;BME280;8870;50.950;11.762;2022-12-29T20:44:55;97717.41;;;7.22;100.00
17505;BME280;8870;50.950;11.762;2022-12-29T20:50:13;97720.72;;;7.16;100.00
17505;BME280;8870;50.950;11.762;2022-12-29T20:55:45;97731.63;;;7.22;100.00
17505;BME280;8870;50.950;11.762;2022-12-29T21:01:11;97715.34;;;7.16;100.00
17505;BME280;8870;50.950;11.762;2022-12-29T21:06:42;97708.03;;;7.00;100.00
17505;BME280;8870;50.950;11.762;2022-12-29T21:12:00;97716.50;;;6.87;100.00
17505;BME280;8870;50.950;11.762;2022-12-29T21:17:35;97712.03;;;6.77;100.00
17505;BME280;8870;50.950;11.762;2022-12-29T21:22:53;97718.72;;;6.73;100.00
17505;BME280;8870;50.950;11.762;2022-12-29T21:28:25;97724.84;;;6.66;100.00
17505;BME280;8870;50.950;11.762;2022-12-29T21:33:53;97724.44;;;6.60;100.00
17505;BME280;8870;50.950;11.762;2022-12-29T21:39:24;97732.19;;;6.63;100.00
17505;BME280;8870;50.950;11.762;2022-12-29T21:44:42;97728.03;;;6.69;100.00
17505;BME280;8870;50.950;11.762;2022-12-29T21:50:39;97734.91;;;6.72;100.00
17505;BME280;8870;50.950;11.762;2022-12-29T21:56:18;97732.00;;;6.83;100.00
17505;BME280;8870;50.950;11.762;2022-12-29T22:01:49;97739.59;;;6.88;100.00
17505;BME280;8870;50.950;11.762;2022-12-29T22:07:22;97758.34;;;6.88;100.00
17505;BME280;8870;50.950;11.762;2022-12-29T22:13:06;97767.19;;;6.88;100.00
17505;BME280;8870;50.950;11.762;2022-12-29T22:18:24;97786.00;;;6.78;100.00
17505;BME280;8870;50.950;11.762;2022-12-29T22:23:59;97779.44;;;6.73;100.00
17505;BME280;8870;50.950;11.762;2022-12-29T22:29:17;97805.38;;;6.72;100.00
17505;BME280;8870;50.950;11.762;2022-12-29T22:34:48;97807.28;;;6.62;100.00
17505;BME280;8870;50.950;11.762;2022-12-29T22:40:17;97796.25;;;6.65;100.00
17505;BME280;8870;50.950;11.762;2022-12-29T22:45:49;97805.38;;;6.72;100.00
17505;BME280;8870;50.950;11.762;2022-12-29T22:51:07;97819.28;;;6.76;100.00
17505;BME280;8870;50.950;11.762;2022-12-29T22:56:41;97821.72;;;6.69;100.00
17505;BME280;8870;50.950;11.762;2022-12-29T23:01:59;97823.13;;;6.73;100.00
17505;BME280;8870;50.950;11.762;2022-12-29T23:07:31;97832.91;;;6.65;100.00
17505;BME280;8870;50.950;11.762;2022-12-29T23:12:52;97830.38;;;6.63;100.00
17505;BME280;8870;50.950;11.762;2022-12-29T23:18:23;97828.16;;;6.58;100.00
17505;BME280;8870;50.950;11.762;2022-12-29T23:23:41;97819.47;;;6.46;100.00
17505;BME280;8870;50.950;11.762;2022-12-29T23:29:28;97832.31;;;6.43;100.00
17505;BME280;8870;50.950;11.762;2022-12-29T23:34:53;97822.44;;;6.43;100.00
17505;BME280;8870;50.950;11.762;2022-12-29T23:40:24;97810.69;;;6.36;100.00
17505;BME280;8870;50.950;11.762;2022-12-29T23:45:45;97818.53;;;6.38;100.00
17505;BME280;8870;50.950;11.762;2022-12-29T23:51:16;97818.50;;;6.47;100.00
17505;BME280;8870;50.950;11.762;2022-12-29T23:56:35;97838.09;;;6.66;100.00
